createdAt,value
2018-07-28T00:02:24.564Z,24.07
2018-07-28T00:04:54.766Z,24.12
2018-07-28T00:07:24.949Z,24.12
2018-07-28T00:09:55.123Z,24.10
2018-07-28T00:12:24.798Z,24.09
2018-07-28T00:14:55.030Z,24.12
2018-07-28T00:17:25.088Z,24.13
2018-07-28T00:19:55.198Z,24.11
2018-07-28T00:22:25.386Z,24.10
2018-07-28T00:24:55.539Z,24.10
2018-07-28T00:27:25.744Z,24.08
2018-07-28T00:29:55.831Z,24.04
2018-07-28T00:32:26.013Z,24.05
2018-07-28T00:34:56.135Z,24.06
2018-07-28T00:37:26.316Z,24.08
2018-07-28T00:39:56.549Z,24.09
2018-07-28T00:42:26.767Z,24.17
2018-07-28T00:44:56.911Z,24.16
2018-07-28T00:47:27.994Z,24.27
2018-07-28T00:49:58.057Z,24.24
2018-07-28T00:52:28.124Z,24.36
2018-07-28T00:54:58.222Z,24.43
2018-07-28T00:57:28.394Z,24.45
2018-07-28T00:59:58.148Z,24.49
2018-07-28T01:02:28.210Z,24.52
2018-07-28T01:04:58.295Z,24.52
2018-07-28T01:07:28.591Z,24.55
2018-07-28T01:09:58.223Z,24.61
2018-07-28T01:12:28.449Z,24.62
2018-07-28T01:14:58.671Z,24.55
2018-07-28T01:17:28.854Z,24.59
2018-07-28T01:19:59.032Z,24.58
2018-07-28T01:22:29.272Z,24.62
2018-07-28T01:24:59.434Z,24.60
2018-07-28T01:27:29.619Z,24.52
2018-07-28T01:29:59.695Z,24.49
2018-07-28T01:32:29.512Z,24.44
2018-07-28T01:34:59.624Z,24.35
2018-07-28T01:37:29.770Z,24.31
2018-07-28T01:39:59.903Z,24.28
2018-07-28T01:42:30.188Z,24.18
2018-07-28T01:45:00.424Z,24.16
2018-07-28T01:47:30.605Z,24.14
2018-07-28T01:50:00.644Z,24.14
2018-07-28T01:52:30.922Z,24.21
2018-07-28T01:55:01.016Z,24.20
2018-07-28T01:57:31.123Z,24.21
2018-07-28T02:00:01.305Z,24.17
2018-07-28T02:02:31.557Z,24.11
2018-07-28T02:05:01.667Z,24.15
2018-07-28T02:07:31.882Z,24.09
2018-07-28T02:10:02.016Z,24.05
2018-07-28T02:12:32.147Z,24.01
2018-07-28T02:15:02.283Z,24.03
2018-07-28T02:17:32.553Z,23.95
2018-07-28T02:20:02.277Z,23.95
2018-07-28T02:22:32.530Z,23.96
2018-07-28T02:25:02.588Z,23.92
2018-07-28T02:27:32.773Z,23.78
2018-07-28T02:30:02.903Z,23.74
2018-07-28T02:32:33.210Z,23.70
2018-07-28T02:35:03.542Z,23.70
2018-07-28T02:37:33.706Z,23.65
2018-07-28T02:40:03.871Z,23.71
2018-07-28T02:42:33.661Z,23.67
2018-07-28T02:45:03.819Z,23.68
2018-07-28T02:47:34.210Z,23.75
2018-07-28T02:50:04.329Z,23.69
2018-07-28T02:52:34.492Z,23.78
2018-07-28T02:55:05.109Z,23.77
2018-07-28T02:57:34.782Z,23.81
2018-07-28T03:00:05.580Z,23.79
2018-07-28T03:02:35.804Z,23.80
2018-07-28T03:05:06.446Z,23.78
2018-07-28T03:07:36.728Z,23.87
2018-07-28T03:10:07.462Z,23.90
2018-07-28T03:12:37.828Z,23.92
2018-07-28T03:15:35.045Z,23.91
2018-07-28T03:18:09.406Z,23.98
2018-07-28T03:20:39.547Z,23.95
2018-07-28T03:23:09.684Z,23.96
2018-07-28T03:25:39.806Z,23.97
2018-07-28T03:28:09.935Z,23.99
2018-07-28T03:30:40.043Z,23.99
2018-07-28T03:33:10.134Z,23.92
2018-07-28T03:35:40.163Z,23.90
2018-07-28T03:38:13.822Z,23.91
2018-07-28T03:40:44.233Z,23.83
2018-07-28T03:43:14.663Z,23.71
2018-07-28T03:45:44.844Z,23.69
2018-07-28T03:48:14.949Z,23.59
2018-07-28T03:50:45.187Z,23.49
2018-07-28T03:53:15.298Z,23.39
2018-07-28T03:55:45.427Z,23.31
2018-07-28T03:58:15.546Z,23.13
2018-07-28T04:00:45.776Z,23.09
2018-07-28T04:03:15.528Z,23.09
2018-07-28T04:05:45.605Z,23.08
2018-07-28T04:08:16.772Z,23.04
2018-07-28T04:10:46.931Z,23.05
2018-07-28T04:13:17.307Z,22.99
2018-07-28T04:15:47.085Z,23.01
2018-07-28T04:18:17.386Z,22.82
2018-07-28T04:20:47.643Z,22.71
2018-07-28T04:23:17.810Z,22.60
2018-07-28T04:25:48.019Z,22.53
2018-07-28T04:28:18.261Z,22.42
2018-07-28T04:30:48.545Z,22.42
2018-07-28T04:33:18.869Z,22.37
2018-07-28T04:35:48.981Z,22.30
2018-07-28T04:38:19.102Z,22.23
2018-07-28T04:40:49.203Z,22.21
2018-07-28T04:43:19.386Z,22.23
2018-07-28T04:45:49.622Z,22.24
2018-07-28T04:48:20.846Z,22.26
2018-07-28T04:50:51.684Z,22.30
2018-07-28T04:53:21.825Z,22.27
2018-07-28T04:55:51.915Z,22.35
2018-07-28T04:58:22.072Z,22.30
2018-07-28T05:00:52.155Z,22.39
2018-07-28T05:03:22.438Z,22.38
2018-07-28T05:05:52.105Z,22.43
2018-07-28T05:08:22.261Z,22.49
2018-07-28T05:10:52.348Z,22.55
2018-07-28T05:13:22.491Z,22.58
2018-07-28T05:15:52.600Z,22.59
2018-07-28T05:18:22.689Z,22.58
2018-07-28T05:20:52.812Z,22.66
2018-07-28T05:23:22.890Z,22.61
2018-07-28T05:25:52.972Z,22.59
2018-07-28T05:28:23.110Z,22.68
2018-07-28T05:30:53.247Z,22.71
2018-07-28T05:33:24.158Z,22.76
2018-07-28T05:35:54.405Z,22.80
2018-07-28T05:38:24.528Z,22.81
2018-07-28T05:40:54.607Z,23.03
2018-07-28T05:43:24.309Z,23.13
2018-07-28T05:45:54.363Z,23.17
2018-07-28T05:48:24.426Z,23.43
2018-07-28T05:50:54.449Z,23.58
2018-07-28T05:53:24.498Z,23.74
2018-07-28T05:55:54.138Z,23.90
2018-07-28T05:58:24.200Z,24.09
2018-07-28T06:00:54.279Z,24.18
2018-07-28T06:03:24.431Z,24.40
2018-07-28T06:05:54.867Z,24.46
2018-07-28T06:08:24.990Z,24.41
2018-07-28T06:10:55.045Z,24.49
2018-07-28T06:13:25.188Z,24.54
2018-07-28T06:15:55.437Z,24.53
2018-07-28T06:18:25.483Z,24.57
2018-07-28T06:20:55.688Z,24.60
2018-07-28T06:23:26.206Z,24.62
2018-07-28T06:25:56.350Z,24.72
2018-07-28T06:28:26.397Z,24.75
2018-07-28T06:30:56.440Z,24.77
2018-07-28T06:33:26.547Z,24.79
2018-07-28T06:35:56.593Z,24.79
2018-07-28T06:38:26.720Z,24.77
2018-07-28T06:40:56.783Z,24.71
2018-07-28T06:43:26.894Z,24.51
2018-07-28T06:45:56.935Z,24.23
2018-07-28T06:48:26.968Z,24.07
2018-07-28T06:50:57.159Z,23.86
2018-07-28T06:53:27.233Z,23.61
2018-07-28T06:55:57.364Z,23.51
2018-07-28T06:58:27.467Z,23.38
2018-07-28T07:00:57.554Z,23.25
2018-07-28T07:03:27.599Z,23.18
2018-07-28T07:05:57.700Z,23.17
2018-07-28T07:08:27.805Z,23.12
2018-07-28T07:10:57.474Z,23.08
2018-07-28T07:13:27.557Z,23.01
2018-07-28T07:15:57.642Z,23.04
2018-07-28T07:18:27.663Z,23.14
2018-07-28T07:20:57.774Z,23.11
2018-07-28T07:23:27.837Z,23.09
2018-07-28T07:25:57.945Z,23.08
2018-07-28T07:28:27.544Z,23.07
2018-07-28T07:30:57.631Z,23.11
2018-07-28T07:33:27.714Z,23.08
2018-07-28T07:35:57.792Z,22.99
2018-07-28T07:38:27.794Z,22.96
2018-07-28T07:40:57.860Z,22.92
2018-07-28T07:43:27.955Z,22.87
2018-07-28T07:45:58.097Z,22.87
2018-07-28T07:48:28.300Z,22.82
2018-07-28T07:50:58.490Z,22.97
2018-07-28T07:53:28.588Z,22.97
2018-07-28T07:55:58.693Z,22.75
2018-07-28T07:58:28.736Z,22.86
2018-07-28T08:00:58.858Z,22.83
2018-07-28T08:03:28.488Z,22.91
2018-07-28T08:05:58.566Z,22.98
2018-07-28T08:08:28.617Z,23.12
2018-07-28T08:10:58.768Z,23.20
2018-07-28T08:13:28.832Z,23.32
2018-07-28T08:15:58.953Z,23.41
2018-07-28T08:18:29.029Z,23.51
2018-07-28T08:20:59.185Z,23.60
2018-07-28T08:23:29.288Z,23.75
2018-07-28T08:25:59.408Z,23.81
2018-07-28T08:28:29.530Z,23.82
2018-07-28T08:30:59.650Z,24.01
2018-07-28T08:33:29.787Z,24.11
2018-07-28T08:35:59.444Z,24.14
2018-07-28T08:38:29.543Z,24.14
2018-07-28T08:40:59.710Z,24.21
2018-07-28T08:43:29.825Z,24.30
2018-07-28T08:45:59.933Z,24.37
2018-07-28T08:48:30.025Z,24.55
2018-07-28T08:51:00.230Z,24.91
2018-07-28T08:53:30.307Z,25.43
2018-07-28T08:56:00.360Z,25.62
2018-07-28T08:58:30.429Z,25.88
2018-07-28T09:01:00.531Z,25.97
2018-07-28T09:03:30.609Z,26.19
2018-07-28T09:06:00.464Z,26.41
2018-07-28T09:08:30.514Z,26.50
2018-07-28T09:11:00.627Z,26.36
2018-07-28T09:13:30.717Z,26.35
2018-07-28T09:16:00.865Z,26.19
2018-07-28T09:18:30.950Z,26.03
2018-07-28T09:21:01.035Z,25.88
2018-07-28T09:23:31.211Z,25.70
2018-07-28T09:26:01.333Z,25.64
2018-07-28T09:28:31.460Z,25.46
2018-07-28T09:31:02.534Z,25.43
2018-07-28T09:33:32.759Z,25.30
2018-07-28T09:36:04.455Z,25.22
2018-07-28T09:38:34.519Z,25.29
2018-07-28T09:41:04.801Z,25.25
2018-07-28T09:43:35.288Z,25.34
2018-07-28T09:46:05.482Z,25.52
2018-07-28T09:48:36.887Z,25.67
2018-07-28T09:51:08.692Z,25.81
2018-07-28T09:53:38.814Z,25.96
2018-07-28T09:56:09.047Z,25.98
2018-07-28T09:58:39.251Z,26.03
2018-07-28T10:01:14.364Z,26.11
2018-07-28T10:03:44.447Z,25.94
2018-07-28T10:06:14.644Z,26.15
2018-07-28T10:08:45.331Z,26.28
2018-07-28T10:11:16.054Z,26.37
2018-07-28T10:13:46.105Z,26.46
2018-07-28T10:16:16.386Z,26.67
2018-07-28T10:18:46.439Z,26.84
2018-07-28T10:21:16.596Z,26.84
2018-07-28T10:23:46.311Z,26.96
2018-07-28T10:26:27.716Z,26.99
2018-07-28T10:28:57.870Z,27.15
2018-07-28T10:31:28.145Z,27.32
2018-07-28T10:33:58.365Z,27.49
2018-07-28T10:36:28.572Z,27.80
2018-07-28T10:38:58.632Z,27.97
2018-07-28T10:41:28.596Z,28.24
2018-07-28T10:43:58.717Z,28.40
2018-07-28T10:46:28.806Z,28.63
2018-07-28T10:48:58.490Z,28.94
2018-07-28T10:51:28.606Z,29.21
2018-07-28T10:53:58.886Z,29.41
2018-07-28T10:56:28.956Z,29.48
2018-07-28T10:59:00.002Z,29.38
2018-07-28T11:01:30.183Z,29.43
2018-07-28T11:04:00.285Z,29.34
2018-07-28T11:06:30.301Z,29.17
2018-07-28T11:09:00.435Z,29.07
2018-07-28T11:11:30.575Z,28.91
2018-07-28T11:14:00.625Z,28.90
2018-07-28T11:16:30.641Z,28.78
2018-07-28T11:19:00.730Z,28.81
2018-07-28T11:21:30.792Z,28.86
2018-07-28T11:24:02.101Z,28.85
2018-07-28T11:26:32.136Z,28.91
2018-07-28T11:29:02.210Z,28.83
2018-07-28T11:31:48.868Z,28.72
2018-07-28T11:34:35.523Z,28.35
2018-07-28T11:37:28.709Z,28.48
2018-07-28T11:40:15.571Z,28.41
2018-07-28T11:43:02.462Z,28.29
2018-07-28T11:45:32.524Z,28.29
2018-07-28T11:48:02.590Z,28.37
2018-07-28T11:50:32.617Z,28.31
2018-07-28T11:53:02.658Z,28.26
2018-07-28T11:55:32.691Z,28.31
2018-07-28T11:58:02.706Z,28.10
2018-07-28T12:00:32.774Z,28.00
2018-07-28T12:03:02.748Z,28.00
2018-07-28T12:05:32.473Z,28.04
2018-07-28T12:08:02.578Z,27.94
2018-07-28T12:10:32.595Z,27.82
2018-07-28T12:13:02.650Z,27.76
2018-07-28T12:15:32.701Z,27.78
2018-07-28T12:18:03.766Z,27.76
2018-07-28T12:20:33.823Z,27.83
2018-07-28T12:23:04.100Z,27.77
2018-07-28T12:25:34.189Z,27.85
2018-07-28T12:28:04.335Z,27.81
2018-07-28T12:30:34.442Z,27.85
2018-07-28T12:33:04.500Z,27.74
2018-07-28T12:35:34.757Z,27.81
2018-07-28T12:38:04.836Z,27.88
2018-07-28T12:40:34.991Z,27.78
2018-07-28T12:43:05.119Z,27.64
2018-07-28T12:45:34.853Z,27.44
2018-07-28T12:48:04.947Z,27.28
2018-07-28T12:50:35.143Z,27.06
2018-07-28T12:53:05.310Z,26.95
2018-07-28T12:55:35.814Z,27.05
2018-07-28T12:58:05.915Z,27.06
2018-07-28T13:00:36.407Z,27.32
2018-07-28T13:03:06.603Z,27.52
2018-07-28T13:05:36.683Z,27.68
2018-07-28T13:08:06.961Z,27.85
2018-07-28T13:10:37.116Z,27.99
2018-07-28T13:13:07.287Z,28.09
2018-07-28T13:15:38.466Z,28.08
2018-07-28T13:18:08.573Z,28.02
2018-07-28T13:20:38.686Z,27.90
2018-07-28T13:23:08.887Z,27.83
2018-07-28T13:25:38.922Z,27.76
2018-07-28T13:28:09.028Z,27.62
2018-07-28T13:30:40.330Z,27.54
2018-07-28T13:33:11.338Z,27.53
2018-07-28T13:35:41.434Z,27.39
2018-07-28T13:38:11.572Z,27.33
2018-07-28T13:40:42.632Z,27.38
2018-07-28T13:43:12.746Z,27.34
2018-07-28T13:45:42.839Z,27.33
2018-07-28T13:48:13.068Z,27.31
2018-07-28T13:50:43.260Z,27.28
2018-07-28T13:53:13.673Z,27.22
2018-07-28T13:55:43.766Z,27.14
2018-07-28T13:58:13.967Z,27.16
2018-07-28T14:00:44.087Z,27.05
2018-07-28T14:03:14.301Z,27.03
2018-07-28T14:05:44.492Z,26.94
2018-07-28T14:08:14.749Z,26.77
2018-07-28T14:10:44.836Z,26.75
2018-07-28T14:13:15.122Z,26.57
2018-07-28T14:15:45.249Z,26.46
2018-07-28T14:18:15.964Z,26.47
2018-07-28T14:20:46.037Z,26.37
2018-07-28T14:23:16.193Z,26.27
2018-07-28T14:25:46.229Z,26.18
2018-07-28T14:28:16.319Z,26.11
2018-07-28T14:30:46.348Z,26.06
2018-07-28T14:33:16.506Z,26.05
2018-07-28T14:35:46.973Z,26.00
2018-07-28T14:38:17.071Z,25.97
2018-07-28T14:40:47.148Z,25.98
2018-07-28T14:43:17.318Z,25.99
2018-07-28T14:45:47.349Z,26.03
2018-07-28T14:48:17.432Z,25.95
2018-07-28T14:50:47.550Z,25.88
2018-07-28T14:53:17.857Z,25.78
2018-07-28T14:55:47.952Z,25.72
2018-07-28T14:58:18.093Z,25.76
2018-07-28T15:00:48.218Z,25.75
2018-07-28T15:03:18.297Z,25.84
2018-07-28T15:05:49.285Z,25.86
2018-07-28T15:08:19.551Z,25.83
2018-07-28T15:10:49.219Z,25.79
2018-07-28T15:13:19.325Z,25.85
2018-07-28T15:15:49.437Z,25.91
2018-07-28T15:18:19.569Z,25.84
2018-07-28T15:20:49.669Z,25.74
2018-07-28T15:23:19.429Z,25.74
2018-07-28T15:25:49.554Z,25.65
2018-07-28T15:28:19.763Z,25.55
2018-07-28T15:30:49.859Z,25.42
2018-07-28T15:33:19.572Z,25.31
2018-07-28T15:35:49.703Z,25.29
2018-07-28T15:38:19.890Z,25.26
2018-07-28T15:40:50.146Z,25.24
2018-07-28T15:43:20.162Z,25.23
2018-07-28T15:45:50.906Z,25.24
2018-07-28T15:48:21.019Z,25.21
2018-07-28T15:50:51.154Z,25.14
2018-07-28T15:53:21.352Z,25.09
2018-07-28T15:55:51.530Z,25.06
2018-07-28T15:58:21.646Z,25.05
2018-07-28T16:00:51.689Z,25.02
2018-07-28T16:03:21.656Z,24.89
2018-07-28T16:08:20.870Z,25.04
2018-07-28T16:10:51.069Z,24.95
2018-07-28T16:13:21.183Z,24.85
2018-07-28T16:15:51.347Z,24.93
2018-07-28T16:18:20.985Z,24.92
2018-07-28T16:20:51.160Z,24.89
2018-07-28T16:23:21.191Z,24.84
2018-07-28T16:25:51.263Z,24.78
2018-07-28T16:28:21.321Z,24.75
2018-07-28T16:30:51.447Z,24.80
2018-07-28T16:33:21.595Z,24.83
2018-07-28T16:35:51.514Z,24.82
2018-07-28T16:38:22.296Z,24.80
2018-07-28T16:40:52.415Z,24.71
2018-07-28T16:43:22.497Z,24.76
2018-07-28T16:45:53.552Z,24.67
2018-07-28T16:48:25.921Z,24.74
2018-07-28T16:50:56.038Z,24.74
2018-07-28T16:53:26.133Z,24.65
2018-07-28T16:55:56.234Z,24.64
2018-07-28T16:58:26.298Z,24.64
2018-07-28T17:00:56.452Z,24.64
2018-07-28T17:03:28.024Z,24.55
2018-07-28T17:05:58.708Z,24.50
2018-07-28T17:08:28.797Z,24.52
2018-07-28T17:10:59.128Z,24.49
2018-07-28T17:13:29.165Z,24.44
2018-07-28T17:15:59.279Z,24.40
2018-07-28T17:18:29.346Z,24.40
2018-07-28T17:20:59.797Z,24.41
2018-07-28T17:23:29.862Z,24.46
2018-07-28T17:25:59.952Z,24.58
2018-07-28T17:28:30.010Z,24.59
2018-07-28T17:31:00.485Z,24.67
2018-07-28T17:33:30.518Z,24.75
2018-07-28T17:36:00.830Z,24.07
2018-07-28T17:38:30.890Z,24.68
2018-07-28T17:41:01.236Z,24.71
2018-07-28T17:43:31.421Z,24.77
2018-07-28T17:46:01.490Z,24.79
2018-07-28T17:48:31.586Z,24.75
2018-07-28T17:51:01.925Z,24.78
2018-07-28T17:53:32.645Z,24.74
2018-07-28T17:56:02.798Z,24.79
2018-07-28T17:58:32.828Z,24.74
2018-07-28T18:01:03.887Z,24.68
2018-07-28T18:03:33.992Z,24.64
2018-07-28T18:06:04.648Z,24.66
2018-07-28T18:08:34.652Z,24.56
2018-07-28T18:11:05.025Z,24.46
2018-07-28T18:13:35.204Z,24.33
2018-07-28T18:16:05.386Z,24.22
2018-07-28T18:18:35.435Z,24.17
2018-07-28T18:21:05.651Z,24.20
2018-07-28T18:23:35.671Z,24.19
2018-07-28T18:26:05.760Z,24.17
2018-07-28T18:28:35.347Z,24.13
2018-07-28T18:31:05.465Z,24.07
2018-07-28T18:33:35.647Z,23.94
2018-07-28T18:36:05.938Z,24.03
2018-07-28T18:38:35.531Z,23.97
2018-07-28T18:41:05.628Z,23.95
2018-07-28T18:43:35.715Z,23.93
2018-07-28T18:46:05.971Z,23.89
2018-07-28T18:48:36.078Z,23.83
2018-07-28T18:51:06.196Z,23.81
2018-07-28T18:53:36.220Z,23.75
2018-07-28T18:56:06.587Z,23.73
2018-07-28T18:58:36.623Z,23.69
2018-07-28T19:01:06.710Z,23.65
2018-07-28T19:03:37.291Z,23.61
2018-07-28T19:06:07.545Z,23.51
2018-07-28T19:08:37.744Z,23.45
2018-07-28T19:11:08.052Z,23.29
2018-07-28T19:13:43.072Z,23.25
2018-07-28T19:16:13.207Z,23.24
2018-07-28T19:18:48.545Z,23.21
2018-07-28T19:21:18.616Z,23.14
2018-07-28T19:23:53.668Z,23.09
2018-07-28T19:26:23.821Z,23.03
2018-07-28T19:28:59.076Z,22.90
2018-07-28T19:31:29.186Z,22.69
2018-07-28T19:33:59.254Z,22.67
2018-07-28T19:36:34.572Z,22.61
2018-07-28T19:39:06.750Z,22.54
2018-07-28T19:41:41.929Z,22.48
2018-07-28T19:44:12.888Z,22.47
2018-07-28T19:46:43.010Z,22.39
2018-07-28T19:49:13.028Z,22.33
2018-07-28T19:51:43.340Z,22.37
2018-07-28T19:54:13.518Z,22.32
2018-07-28T19:56:43.599Z,22.27
2018-07-28T19:59:13.684Z,22.25
2018-07-28T20:01:43.761Z,22.19
2018-07-28T20:04:13.853Z,22.11
2018-07-28T20:06:44.053Z,22.09
2018-07-28T20:09:14.191Z,22.10
2018-07-28T20:11:44.315Z,22.00
2018-07-28T20:14:14.408Z,21.93
2018-07-28T20:16:44.574Z,21.99
2018-07-28T20:19:14.668Z,21.93
2018-07-28T20:21:45.014Z,21.95
2018-07-28T20:24:15.161Z,21.94
2018-07-28T20:26:45.280Z,21.80
2018-07-28T20:29:15.374Z,21.79
2018-07-28T20:31:45.552Z,21.75
2018-07-28T20:34:15.625Z,21.76
2018-07-28T20:36:46.339Z,21.75
2018-07-28T20:39:16.585Z,21.63
2018-07-28T20:41:46.783Z,21.56
2018-07-28T20:44:16.823Z,21.54
2018-07-28T20:46:46.848Z,21.53
2018-07-28T20:49:16.959Z,21.50
2018-07-28T20:51:47.128Z,21.53
2018-07-28T20:54:17.177Z,21.58
2018-07-28T20:56:47.308Z,21.52
2018-07-28T20:59:17.367Z,21.41
2018-07-28T21:01:47.504Z,21.47
2018-07-28T21:04:17.720Z,21.36
2018-07-28T21:06:47.741Z,21.31
2018-07-28T21:09:17.924Z,21.29
2018-07-28T21:11:48.063Z,21.21
2018-07-28T21:14:18.227Z,21.17
2018-07-28T21:16:48.238Z,21.05
2018-07-28T21:19:18.259Z,21.04
2018-07-28T21:21:48.502Z,21.00
2018-07-28T21:24:18.570Z,20.88
2018-07-28T21:26:48.636Z,20.78
2018-07-28T21:29:18.770Z,20.76
2018-07-28T21:31:48.947Z,20.67
2018-07-28T21:34:19.069Z,20.62
2018-07-28T21:36:49.104Z,20.50
2018-07-28T21:39:19.238Z,20.40
2018-07-28T21:41:49.382Z,20.40
2018-07-28T21:44:19.502Z,20.30
2018-07-28T21:46:49.603Z,20.27
2018-07-28T21:49:19.655Z,20.28
2018-07-28T21:51:49.741Z,20.20
2018-07-28T21:54:19.472Z,20.18
2018-07-28T21:56:50.492Z,20.13
2018-07-28T21:59:20.634Z,20.08
2018-07-28T22:01:50.792Z,20.03
2018-07-28T22:04:25.878Z,19.99
2018-07-28T22:06:55.987Z,20.00
2018-07-28T22:09:26.061Z,19.95
2018-07-28T22:11:56.808Z,19.94
2018-07-28T22:14:27.014Z,19.88
2018-07-28T22:16:57.204Z,19.87
2018-07-28T22:19:27.305Z,19.81
2018-07-28T22:21:57.369Z,19.76
2018-07-28T22:24:27.476Z,19.77
2018-07-28T22:26:57.554Z,19.75
2018-07-28T22:29:27.655Z,19.69
2018-07-28T22:31:57.717Z,19.61
2018-07-28T22:34:27.841Z,19.55
2018-07-28T22:36:57.841Z,19.50
2018-07-28T22:39:27.941Z,19.45
2018-07-28T22:41:58.835Z,19.41
2018-07-28T22:44:28.946Z,19.34
2018-07-28T22:46:59.002Z,19.31
2018-07-28T22:49:29.084Z,19.26
2018-07-28T22:51:59.173Z,19.20
2018-07-28T22:54:29.279Z,19.14
2018-07-28T22:56:59.390Z,19.10
2018-07-28T22:59:29.089Z,19.04
2018-07-28T23:01:59.138Z,19.02
2018-07-28T23:04:29.207Z,18.95
2018-07-28T23:06:59.355Z,18.91
2018-07-28T23:09:29.418Z,18.87
2018-07-28T23:11:59.480Z,18.84
2018-07-28T23:14:29.589Z,18.78
2018-07-28T23:16:59.627Z,18.75
2018-07-28T23:19:29.721Z,18.73
2018-07-28T23:21:59.855Z,18.71
2018-07-28T23:24:30.011Z,18.70
2018-07-28T23:27:00.027Z,18.64
2018-07-28T23:29:30.109Z,18.65
2018-07-28T23:32:00.154Z,18.63
2018-07-28T23:34:30.277Z,18.62
2018-07-28T23:37:00.497Z,18.61
2018-07-28T23:39:30.684Z,18.59
2018-07-28T23:42:00.827Z,18.55
2018-07-28T23:44:30.849Z,18.53
2018-07-28T23:47:01.023Z,18.53
2018-07-28T23:49:31.083Z,18.55
2018-07-28T23:52:01.870Z,18.56
2018-07-28T23:54:31.966Z,18.56
2018-07-28T23:57:02.099Z,18.54
2018-07-28T23:59:32.191Z,18.52
